Terminal Aerodrome Forecast
Issued by NWS

Home | Current Version | Previous Version | Text Only | Print | Product List | Glossary On
Versions: 1 2 3 4 5 6 7 8 9 10 11 12 13
000
FTUS46 KMTR 291734
TAFSTS
TAF
KSTS 291734Z 2918/3018 VRB03KT P6SM SKC
     FM291900 20009KT P6SM SKC
     FM300300 16005KT P6SM SKC
     FM301000 00000KT 5SM BR OVC004
     FM301500 VRB03KT P6SM FEW012=

USA.gov is the U.S. government's official web portal to all federal, state and local government web resources and services.